Hovedside
METAR-TAF:

METAR-TAF

Lufthavner :

Amman, Jordan

breddegrad: 31-59N, lengdegrad: 035-59E, høyde over havet: 767 m

Gjeldene værobservasjon

Denne rapporten ble laget for 50 minutter siden, klokken 17:00 UTC
Vind 14 kt fra Vest-nordvest
Temperatur 25°C
Luftfuktighet 34%
Trykk 1014 hPa
Sikt: 8000 m

METAR: OJAM 231700Z 29014KT 8000 NSC 25/08 Q1014 NOSIG

Tid: 20:50 (17:50 UTC)

Varsel

Denne rapporten ble laget for 34 minutter siden, klokken 17:16 UTC
Varsel gyldig fra 23. klokken 18 UTC til 24. klokken 24 UTC
Vind 14 kt fra Vest-nordvest
Sikt: 8000 m
Midlertidig
fra 23. klokken 20 UTC til 24. klokken 10 UTC
Vind 8 kt fra Vest

TAF: OJAM 231716Z 2318/2424 29014KT 8000 NSC TEMPO 2320/2410 27008KT

Værobservasjoner og værvarsel for over 4000 flyplasser (METAR- og TAF-rapporter).

Tilgjengelige stasjoner er representert av de røde og gule prikkene på kartet.

Hold musepekeren over prikken for å se navnet på stasjonen.

Klikk så for å se værobservasjoner og -varsler.

For å forandre kartet kan du klikke på den grønne knappen med svart kryss for å zoome inn, på den grønne knappen med strek for å zoome ut, eller på de grønne pilene for å se tilstøtende kart.


METAR-TAF: